createdAt,value
2022-12-23T00:01:14.152Z,3.30
2022-12-23T00:04:21.917Z,3.30
2022-12-23T00:07:30.034Z,3.40
2022-12-23T00:10:41.516Z,3.40
2022-12-23T00:14:08.582Z,3.42
2022-12-23T00:17:22.418Z,3.50
2022-12-23T00:20:31.431Z,3.50
2022-12-23T00:23:41.485Z,3.50
2022-12-23T00:26:49.398Z,3.50
2022-12-23T00:29:57.488Z,3.50
2022-12-23T00:33:05.428Z,3.52
2022-12-23T00:36:28.510Z,3.54
2022-12-23T00:39:55.216Z,3.60
2022-12-23T00:43:04.072Z,3.60
2022-12-23T00:46:12.329Z,3.60
2022-12-23T00:49:40.500Z,3.70
2022-12-23T00:52:48.428Z,3.70
2022-12-23T00:55:56.630Z,3.70
2022-12-23T00:59:05.281Z,3.70
2022-12-23T01:02:32.827Z,3.74
2022-12-23T01:05:41.118Z,3.80
2022-12-23T01:08:49.070Z,3.80
2022-12-23T01:11:56.950Z,3.80
2022-12-23T01:15:05.213Z,3.80
2022-12-23T01:18:13.393Z,3.80
2022-12-23T01:21:22.544Z,3.80
2022-12-23T01:24:34.443Z,3.78
2022-12-23T01:27:42.926Z,3.70
2022-12-23T01:30:50.815Z,3.70
2022-12-23T01:33:59.529Z,3.70
2022-12-23T01:37:07.963Z,3.68
2022-12-23T01:40:17.792Z,3.60
2022-12-23T01:43:24.453Z,3.60
2022-12-23T01:46:32.870Z,3.60
2022-12-23T01:49:40.798Z,3.60
2022-12-23T01:53:02.969Z,3.60
2022-12-23T01:56:24.071Z,3.60
2022-12-23T01:59:50.107Z,3.60
2022-12-23T02:03:16.299Z,3.60
2022-12-23T02:06:46.927Z,3.60
2022-12-23T02:09:54.944Z,3.60
2022-12-23T02:13:15.360Z,3.60
2022-12-23T02:16:23.793Z,3.60
2022-12-23T02:20:14.162Z,3.60
2022-12-23T02:24:26.736Z,3.70
2022-12-23T02:27:44.672Z,3.76
2022-12-23T02:31:02.834Z,3.80
2022-12-23T02:34:21.022Z,3.80
2022-12-23T02:37:38.526Z,3.80
2022-12-23T02:40:58.789Z,3.80
2022-12-23T02:44:14.962Z,3.72
2022-12-23T02:47:30.448Z,3.72
2022-12-23T02:50:42.283Z,3.72
2022-12-23T02:53:57.180Z,3.78
2022-12-23T02:57:09.137Z,3.80
2022-12-23T03:00:19.419Z,3.80
2022-12-23T03:03:28.073Z,3.80
2022-12-23T03:06:41.700Z,3.88
2022-12-23T03:10:04.716Z,3.90
2022-12-23T03:13:30.392Z,3.90
2022-12-23T03:16:54.767Z,3.90
2022-12-23T03:20:15.473Z,3.80
2022-12-23T03:23:31.152Z,3.80
2022-12-23T03:26:46.312Z,3.70
2022-12-23T03:30:03.539Z,3.60
2022-12-23T03:33:18.445Z,3.56
2022-12-23T03:36:35.212Z,3.50
2022-12-23T03:39:51.409Z,3.50
2022-12-23T03:43:05.862Z,3.50
2022-12-23T03:46:20.646Z,3.48
2022-12-23T03:49:36.842Z,3.40
2022-12-23T03:52:52.238Z,3.36
2022-12-23T03:56:09.420Z,3.30
2022-12-23T03:59:23.305Z,3.10
2022-12-23T04:02:48.742Z,3.00
2022-12-23T04:06:02.191Z,2.96
2022-12-23T04:09:18.196Z,2.90
2022-12-23T04:12:33.004Z,2.80
2022-12-23T04:15:44.207Z,2.70
2022-12-23T04:18:53.875Z,2.60
2022-12-23T04:22:01.864Z,2.60
2022-12-23T04:25:12.428Z,2.50
2022-12-23T04:28:22.895Z,2.50
2022-12-23T04:31:31.062Z,2.50
2022-12-23T04:34:39.367Z,2.50
2022-12-23T04:37:47.207Z,2.42
2022-12-23T04:41:01.499Z,2.40
2022-12-23T04:44:10.443Z,2.40
2022-12-23T04:47:18.210Z,2.32
2022-12-23T04:50:26.199Z,2.30
2022-12-23T04:53:34.232Z,2.30
2022-12-23T04:56:42.547Z,2.30
2022-12-23T04:59:50.931Z,2.26
2022-12-23T05:02:59.381Z,2.20
2022-12-23T05:06:09.194Z,2.20
2022-12-23T05:09:17.102Z,2.20
2022-12-23T05:12:25.078Z,2.20
2022-12-23T05:15:35.023Z,2.20
2022-12-23T05:18:43.818Z,2.20
2022-12-23T05:21:51.777Z,2.20
2022-12-23T05:24:59.753Z,2.20
2022-12-23T05:28:09.656Z,2.20
2022-12-23T05:31:17.430Z,2.20
2022-12-23T05:34:25.813Z,2.20
2022-12-23T05:37:34.569Z,2.18
2022-12-23T05:40:43.546Z,2.10
2022-12-23T05:43:53.850Z,2.12
2022-12-23T05:47:03.697Z,2.12
2022-12-23T05:50:13.898Z,2.10
2022-12-23T05:53:24.781Z,2.10
2022-12-23T05:56:34.521Z,2.10
2022-12-23T05:59:44.107Z,2.10
2022-12-23T06:02:54.144Z,2.00
2022-12-23T06:06:02.821Z,2.00
2022-12-23T06:09:15.257Z,2.00
2022-12-23T06:12:23.663Z,2.00
2022-12-23T06:15:31.931Z,1.96
2022-12-23T06:18:41.354Z,1.90
2022-12-23T06:21:49.977Z,1.90
2022-12-23T06:24:58.174Z,1.90
2022-12-23T06:28:09.405Z,1.82
2022-12-23T06:31:38.425Z,1.80
2022-12-23T06:34:46.809Z,1.80
2022-12-23T06:37:57.541Z,1.80
2022-12-23T06:41:06.161Z,1.76
2022-12-23T06:44:20.131Z,1.70
2022-12-23T06:47:28.467Z,1.72
2022-12-23T06:50:36.456Z,1.70
2022-12-23T06:53:45.608Z,1.70
2022-12-23T06:56:53.729Z,1.70
2022-12-23T07:00:02.802Z,1.70
2022-12-23T07:03:12.772Z,1.70
2022-12-23T07:06:21.745Z,1.70
2022-12-23T07:09:29.950Z,1.70
2022-12-23T07:12:38.653Z,1.62
2022-12-23T07:15:46.789Z,1.60
2022-12-23T07:18:56.231Z,1.60
2022-12-23T07:22:04.421Z,1.60
2022-12-23T07:25:14.399Z,1.60
2022-12-23T07:28:25.748Z,1.60
2022-12-23T07:31:40.889Z,1.60
2022-12-23T07:34:49.988Z,1.60
2022-12-23T07:37:59.942Z,1.60
2022-12-23T07:41:10.569Z,1.60
2022-12-23T07:44:22.924Z,1.60
2022-12-23T07:47:30.999Z,1.56
2022-12-23T07:50:38.820Z,1.60
2022-12-23T07:53:49.408Z,1.60
2022-12-23T07:56:58.395Z,1.70
2022-12-23T08:00:11.264Z,1.70
2022-12-23T08:03:22.362Z,1.80
2022-12-23T08:06:30.756Z,1.90
2022-12-23T08:09:39.063Z,2.00
2022-12-23T08:12:47.673Z,2.20
2022-12-23T08:16:00.192Z,2.30
2022-12-23T08:19:08.876Z,2.40
2022-12-23T08:22:16.887Z,2.30
2022-12-23T08:25:25.319Z,2.20
2022-12-23T08:28:34.559Z,2.10
2022-12-23T08:31:43.199Z,2.02
2022-12-23T08:34:51.079Z,2.00
2022-12-23T08:37:59.079Z,2.00
2022-12-23T08:41:11.984Z,2.00
2022-12-23T08:44:20.825Z,2.00
2022-12-23T08:47:28.832Z,2.08
2022-12-23T08:50:42.401Z,2.20
2022-12-23T08:53:57.895Z,2.30
2022-12-23T08:57:08.981Z,2.40
2022-12-23T09:00:18.791Z,2.50
2022-12-23T09:03:25.461Z,2.50
2022-12-23T09:06:39.321Z,2.50
2022-12-23T09:09:47.470Z,2.50
2022-12-23T09:12:57.961Z,2.50
2022-12-23T09:16:07.310Z,2.50
2022-12-23T09:19:16.243Z,2.50
2022-12-23T09:22:25.065Z,2.50
2022-12-23T09:25:33.648Z,2.50
2022-12-23T09:28:42.264Z,2.50
2022-12-23T09:31:50.324Z,2.50
2022-12-23T09:34:58.745Z,2.50
2022-12-23T09:38:07.800Z,2.60
2022-12-23T09:41:34.961Z,2.60
2022-12-23T09:45:13.565Z,2.70
2022-12-23T09:48:26.904Z,2.70
2022-12-23T09:51:36.531Z,2.72
2022-12-23T09:54:47.725Z,2.80
2022-12-23T09:58:01.262Z,2.80
2022-12-23T10:01:21.114Z,2.90
2022-12-23T10:04:37.644Z,2.90
2022-12-23T10:07:52.649Z,2.98
2022-12-23T10:11:07.356Z,2.98
2022-12-23T10:14:23.715Z,3.00
2022-12-23T10:17:41.658Z,2.92
2022-12-23T10:20:59.597Z,2.92
2022-12-23T10:24:18.114Z,2.90
2022-12-23T10:27:33.902Z,2.90
2022-12-23T10:31:17.230Z,2.90
2022-12-23T10:34:33.452Z,2.90
2022-12-23T10:37:53.374Z,2.90
2022-12-23T10:41:17.125Z,2.90
2022-12-23T10:44:54.181Z,2.90
2022-12-23T10:48:20.805Z,2.92
2022-12-23T10:51:36.359Z,3.00
2022-12-23T10:54:48.410Z,2.90
2022-12-23T10:58:10.547Z,2.90
2022-12-23T11:01:26.761Z,2.90
2022-12-23T11:04:42.293Z,2.90
2022-12-23T11:07:52.895Z,3.00
2022-12-23T11:11:02.476Z,3.00
2022-12-23T11:14:39.256Z,3.00
2022-12-23T11:18:02.141Z,3.10
2022-12-23T11:21:17.640Z,3.10
2022-12-23T11:24:27.833Z,3.10
2022-12-23T11:27:36.034Z,3.16
2022-12-23T11:30:57.912Z,3.20
2022-12-23T11:34:08.299Z,3.20
2022-12-23T11:37:36.349Z,3.22
2022-12-23T11:40:48.855Z,3.30
2022-12-23T11:44:03.079Z,3.26
2022-12-23T11:47:34.777Z,3.30
2022-12-23T11:50:43.705Z,3.30
2022-12-23T11:54:00.235Z,3.30
2022-12-23T11:57:16.984Z,3.32
2022-12-23T12:00:30.638Z,3.40
2022-12-23T12:03:49.566Z,3.40
2022-12-23T12:06:58.429Z,3.42
2022-12-23T12:10:12.815Z,3.50
2022-12-23T12:13:32.530Z,3.46
2022-12-23T12:17:04.842Z,3.40
2022-12-23T12:20:32.813Z,3.40
2022-12-23T12:24:08.289Z,3.42
2022-12-23T12:27:21.491Z,3.50
2022-12-23T12:30:39.146Z,3.44
2022-12-23T12:33:54.614Z,3.42
2022-12-23T12:37:19.641Z,3.46
2022-12-23T12:40:37.463Z,3.50
2022-12-23T12:43:53.723Z,3.50
2022-12-23T12:47:36.217Z,3.50
2022-12-23T12:50:56.536Z,3.50
2022-12-23T12:54:18.447Z,3.56
2022-12-23T12:57:28.399Z,3.58
2022-12-23T13:00:52.599Z,3.50
2022-12-23T13:04:46.331Z,3.50
2022-12-23T13:08:17.837Z,3.50
2022-12-23T13:11:40.840Z,3.50
2022-12-23T13:15:04.600Z,3.50
2022-12-23T13:18:37.661Z,3.50
2022-12-23T13:21:53.151Z,3.50
2022-12-23T13:25:12.145Z,3.50
2022-12-23T13:28:41.006Z,3.50
2022-12-23T13:32:00.674Z,3.50
2022-12-23T13:35:33.868Z,3.50
2022-12-23T13:39:14.470Z,3.50
2022-12-23T13:42:32.408Z,3.48
2022-12-23T13:45:42.852Z,3.42
2022-12-23T13:49:04.640Z,3.42
2022-12-23T13:52:18.841Z,3.50
2022-12-23T13:55:48.967Z,3.50
2022-12-23T13:58:56.009Z,3.50
2022-12-23T14:02:03.978Z,3.50
2022-12-23T14:05:37.241Z,3.50
2022-12-23T14:08:50.029Z,3.50
2022-12-23T14:12:02.795Z,3.50
2022-12-23T14:15:44.014Z,3.50
2022-12-23T14:19:25.731Z,3.56
2022-12-23T14:22:56.417Z,3.58
2022-12-23T14:26:26.865Z,3.60
2022-12-23T14:29:59.955Z,3.60
2022-12-23T14:33:28.024Z,3.58
2022-12-23T14:36:36.177Z,3.60
2022-12-23T14:39:45.583Z,3.58
2022-12-23T14:43:27.752Z,3.56
2022-12-23T14:47:01.949Z,3.56
2022-12-23T14:50:44.527Z,3.56
2022-12-23T14:54:37.960Z,3.50
2022-12-23T14:57:47.048Z,3.50
2022-12-23T15:01:06.353Z,3.52
2022-12-23T15:04:26.863Z,3.50
2022-12-23T15:07:41.981Z,3.50
2022-12-23T15:10:50.165Z,3.50
2022-12-23T15:14:01.749Z,3.50
2022-12-23T15:17:28.053Z,3.50
2022-12-23T15:20:36.252Z,3.50
2022-12-23T15:23:52.896Z,3.50
2022-12-23T15:27:25.867Z,3.50
2022-12-23T15:30:36.450Z,3.50
2022-12-23T15:34:03.031Z,3.50
2022-12-23T15:37:18.332Z,3.50
2022-12-23T15:40:34.231Z,3.50
2022-12-23T15:43:47.608Z,3.46
2022-12-23T15:46:56.737Z,3.42
2022-12-23T15:50:12.998Z,3.40
2022-12-23T15:53:22.996Z,3.44
2022-12-23T15:56:33.261Z,3.42
2022-12-23T15:59:42.203Z,3.48
2022-12-23T16:03:01.235Z,3.50
2022-12-23T16:06:22.041Z,3.50
2022-12-23T16:09:38.018Z,3.50
2022-12-23T16:12:46.585Z,3.50
2022-12-23T16:15:55.132Z,3.50
2022-12-23T16:19:03.595Z,3.50
2022-12-23T16:22:22.604Z,3.50
2022-12-23T16:25:34.106Z,3.50
2022-12-23T16:28:47.023Z,3.50
2022-12-23T16:32:01.684Z,3.50
2022-12-23T16:35:37.265Z,3.50
2022-12-23T16:38:45.709Z,3.42
2022-12-23T16:41:53.836Z,3.40
2022-12-23T16:45:01.648Z,3.40
2022-12-23T16:48:18.329Z,3.40
2022-12-23T16:51:34.302Z,3.30
2022-12-23T16:54:42.788Z,3.30
2022-12-23T16:57:50.950Z,3.30
2022-12-23T17:00:59.363Z,3.30
2022-12-23T17:04:09.249Z,3.26
2022-12-23T17:07:17.727Z,3.20
2022-12-23T17:10:26.354Z,3.20
2022-12-23T17:13:34.118Z,3.20
2022-12-23T17:16:42.147Z,3.16
2022-12-23T17:19:49.793Z,3.12
2022-12-23T17:23:01.032Z,3.10
2022-12-23T17:26:09.344Z,3.10
2022-12-23T17:29:17.654Z,3.10
2022-12-23T17:32:25.634Z,3.08
2022-12-23T17:35:33.310Z,3.00
2022-12-23T17:38:41.219Z,3.00
2022-12-23T17:41:50.837Z,3.00
2022-12-23T17:44:58.637Z,3.00
2022-12-23T17:48:06.787Z,3.00
2022-12-23T17:51:18.132Z,2.96
2022-12-23T17:54:28.126Z,2.94
2022-12-23T17:57:36.802Z,2.90
2022-12-23T18:00:45.031Z,2.90
2022-12-23T18:03:53.923Z,2.80
2022-12-23T18:07:01.777Z,2.80
2022-12-23T18:10:14.182Z,2.78
2022-12-23T18:13:23.413Z,2.70
2022-12-23T18:16:31.305Z,2.70
2022-12-23T18:19:39.953Z,2.60
2022-12-23T18:22:48.436Z,2.58
2022-12-23T18:25:57.437Z,2.50
2022-12-23T18:29:05.615Z,2.58
2022-12-23T18:32:23.501Z,2.60
2022-12-23T18:35:36.150Z,2.60
2022-12-23T18:38:44.084Z,2.58
2022-12-23T18:41:51.795Z,2.56
2022-12-23T18:44:59.861Z,2.60
2022-12-23T18:48:10.664Z,2.60
2022-12-23T18:51:21.024Z,2.68
2022-12-23T18:54:29.428Z,2.70
2022-12-23T18:57:37.469Z,2.70
2022-12-23T19:00:45.708Z,2.70
2022-12-23T19:03:53.961Z,2.70
2022-12-23T19:07:02.655Z,2.80
2022-12-23T19:10:15.708Z,2.80
2022-12-23T19:13:23.856Z,2.90
2022-12-23T19:16:32.020Z,2.94
2022-12-23T19:19:40.151Z,2.96
2022-12-23T19:22:49.190Z,2.90
2022-12-23T19:25:57.336Z,2.90
2022-12-23T19:29:05.403Z,2.84
2022-12-23T19:32:13.808Z,2.88
2022-12-23T19:38:31.916Z,2.92
2022-12-23T19:41:40.199Z,3.00
2022-12-23T19:44:48.419Z,3.18
2022-12-23T19:47:56.378Z,3.30
2022-12-23T19:51:07.228Z,3.40
2022-12-23T19:54:15.620Z,3.50
2022-12-23T19:57:24.542Z,3.50
2022-12-23T20:00:32.619Z,3.60
2022-12-23T20:03:41.975Z,3.74
2022-12-23T20:06:49.995Z,3.80
2022-12-23T20:09:57.690Z,3.70
2022-12-23T20:13:05.527Z,3.60
2022-12-23T20:16:14.785Z,3.56
2022-12-23T20:19:23.005Z,3.50
2022-12-23T20:22:30.995Z,3.40
2022-12-23T20:25:38.905Z,3.40
2022-12-23T20:28:47.217Z,3.40
2022-12-23T20:31:55.100Z,3.30
2022-12-23T20:35:03.223Z,3.30
2022-12-23T20:38:11.110Z,3.20
2022-12-23T20:41:22.698Z,3.20
2022-12-23T20:44:35.787Z,3.10
2022-12-23T20:47:44.914Z,3.02
2022-12-23T20:50:53.041Z,3.00
2022-12-23T20:54:02.217Z,3.00
2022-12-23T20:57:12.145Z,3.00
2022-12-23T21:00:21.725Z,3.00
2022-12-23T21:03:29.703Z,2.98
2022-12-23T21:06:38.960Z,3.00
2022-12-23T21:09:47.661Z,3.00
2022-12-23T21:12:55.636Z,3.00
2022-12-23T21:16:09.008Z,3.00
2022-12-23T21:19:22.393Z,3.00
2022-12-23T21:22:30.251Z,3.10
2022-12-23T21:25:38.151Z,3.10
2022-12-23T21:28:48.834Z,3.10
2022-12-23T21:31:57.130Z,3.20
2022-12-23T21:35:05.651Z,3.30
2022-12-23T21:38:14.177Z,3.38
2022-12-23T21:41:27.522Z,3.40
2022-12-23T21:44:36.345Z,3.40
2022-12-23T21:47:44.356Z,3.40
2022-12-23T21:50:52.976Z,3.40
2022-12-23T21:54:01.828Z,3.50
2022-12-23T21:57:09.700Z,3.40
2022-12-23T22:00:20.099Z,3.40
2022-12-23T22:03:28.884Z,3.40
2022-12-23T22:06:40.623Z,3.32
2022-12-23T22:09:48.402Z,3.34
2022-12-23T22:12:56.509Z,3.32
2022-12-23T22:16:05.056Z,3.30
2022-12-23T22:19:14.252Z,3.30
2022-12-23T22:22:22.734Z,3.20
2022-12-23T22:25:30.607Z,3.20
2022-12-23T22:28:40.672Z,3.20
2022-12-23T22:31:53.314Z,3.10
2022-12-23T22:35:01.568Z,3.10
2022-12-23T22:38:09.674Z,3.10
2022-12-23T22:41:19.056Z,3.10
2022-12-23T22:44:27.043Z,3.00
2022-12-23T22:47:35.567Z,3.00
2022-12-23T22:50:43.446Z,2.90
2022-12-23T22:53:52.071Z,2.90
2022-12-23T22:57:00.112Z,2.84
2022-12-23T23:00:12.885Z,2.80
2022-12-23T23:03:20.947Z,2.78
2022-12-23T23:06:31.290Z,2.70
2022-12-23T23:09:39.679Z,2.70
2022-12-23T23:12:48.805Z,2.70
2022-12-23T23:15:57.084Z,2.70
2022-12-23T23:19:06.783Z,2.70
2022-12-23T23:22:14.601Z,2.70
2022-12-23T23:25:23.905Z,2.68
2022-12-23T23:28:32.079Z,2.70
2022-12-23T23:31:42.485Z,2.70
2022-12-23T23:34:51.379Z,2.70
2022-12-23T23:37:59.263Z,2.70
2022-12-23T23:41:07.659Z,2.80
2022-12-23T23:44:16.235Z,2.90
2022-12-23T23:47:24.729Z,3.08
2022-12-23T23:50:32.589Z,3.10
2022-12-23T23:53:40.704Z,3.10
2022-12-23T23:56:49.585Z,3.10
2022-12-23T23:59:57.248Z,3.10
